Aviation Digital Data Service (ADDS)

Output produced by METARs form (1538 UTC 29 April 2017)
found at http://aviationweather.gov/adds/metars/
 
KARA 291453Z 15026G34KT 10SM -RA BKN018 OVC034 28/22 A2984 RMK AO2 PK WND 15037/1441 SLP103 P0000 60000 T02830222 58004